Time;durP1;ratioP1;P1;durP2;ratioP2;P2;SDS_P1;SDS_P2;PMS_P1;PMS_P2;Temp;Humidity;BMP_temperature;BMP_pressure;BME280_temperature;BME280_humidity;BME280_pressure;Samples;Min_cycle;Max_cycle;Signal;HPM_P1;HPM_P2
2023/11/29 00:02:21;;;;;;;12.50;6.38;;;2.80;99.90;;;;;;5085763;28;20032;-71
2023/11/29 00:04:48;;;;;;;9.95;5.07;;;2.80;99.90;;;;;;5074361;28;20068;-72
2023/11/29 00:07:15;;;;;;;9.32;5.38;;;2.70;99.90;;;;;;5081525;28;20074;-69
2023/11/29 00:09:42;;;;;;;8.07;5.30;;;2.70;99.90;;;;;;5092386;28;20075;-69
2023/11/29 00:12:09;;;;;;;10.40;4.75;;;2.70;99.90;;;;;;5091305;28;20389;-69
2023/11/29 00:14:36;;;;;;;12.32;4.55;;;2.70;99.90;;;;;;5093627;28;20508;-69
2023/11/29 00:17:04;;;;;;;11.75;5.20;;;2.70;99.90;;;;;;5093464;28;20044;-69
2023/11/29 00:19:37;;;;;;;9.48;5.10;;;2.70;99.90;;;;;;5092133;28;20087;-69
2023/11/29 00:22:05;;;;;;;7.10;4.38;;;2.70;99.90;;;;;;5092432;28;20479;-68
2023/11/29 00:24:32;;;;;;;11.93;5.20;;;2.70;99.90;;;;;;5093668;28;20044;-69
2023/11/29 00:26:59;;;;;;;10.07;5.00;;;2.70;99.90;;;;;;5093274;28;20127;-69
2023/11/29 00:29:27;;;;;;;11.02;5.15;;;2.70;99.90;;;;;;5093415;28;20044;-70
2023/11/29 00:31:54;;;;;;;9.50;5.43;;;2.70;99.90;;;;;;5093179;28;20078;-71
2023/11/29 00:34:21;;;;;;;7.95;4.93;;;2.70;99.90;;;;;;5085715;28;20043;-70
2023/11/29 00:36:49;;;;;;;7.47;5.03;;;2.70;99.90;;;;;;5091900;28;20036;-71
2023/11/29 00:39:16;;;;;;;10.10;4.70;;;2.70;99.90;;;;;;5092876;28;20420;-69
2023/11/29 00:41:43;;;;;;;13.75;4.93;;;2.70;99.90;;;;;;5090523;28;20124;-71
2023/11/29 00:44:10;;;;;;;8.20;4.90;;;2.70;99.90;;;;;;5089574;28;20068;-71
2023/11/29 00:46:37;;;;;;;9.73;5.07;;;2.70;99.90;;;;;;5084081;28;20068;-72
2023/11/29 00:49:03;;;;;;;8.68;5.43;;;2.70;99.90;;;;;;5080165;28;20040;-71
2023/11/29 00:51:30;;;;;;;8.63;5.32;;;2.70;99.90;;;;;;5086939;28;20407;-71
2023/11/29 00:53:58;;;;;;;10.90;5.40;;;2.70;99.90;;;;;;5088911;28;20097;-69
2023/11/29 00:56:25;;;;;;;10.93;5.55;;;2.60;99.90;;;;;;5091612;28;20093;-69
2023/11/29 00:58:53;;;;;;;13.05;5.72;;;2.70;99.90;;;;;;5091499;28;20047;-69
2023/11/29 01:01:20;;;;;;;13.38;5.55;;;2.70;99.90;;;;;;5092815;28;20044;-69
2023/11/29 01:03:46;;;;;;;9.73;5.07;;;2.70;99.90;;;;;;5092652;28;20040;-69
2023/11/29 01:06:13;;;;;;;8.68;5.78;;;2.70;99.90;;;;;;5091951;28;20500;-68
2023/11/29 01:08:43;;;;;;;9.90;5.80;;;2.70;99.90;;;;;;5091485;28;20101;-69
2023/11/29 01:11:10;;;;;;;8.73;5.22;;;2.70;99.90;;;;;;5091697;28;20040;-69
2023/11/29 01:13:37;;;;;;;9.75;5.22;;;2.70;99.90;;;;;;5086234;28;20044;-71
2023/11/29 01:16:03;;;;;;;9.25;5.22;;;2.70;99.90;;;;;;5082939;28;20041;-72
2023/11/29 01:18:33;;;;;;;9.48;5.70;;;2.80;99.90;;;;;;5073300;28;20043;-72
2023/11/29 01:21:00;;;;;;;10.50;6.22;;;2.80;99.90;;;;;;5075975;28;20448;-71
2023/11/29 01:23:27;;;;;;;9.80;5.30;;;2.90;99.90;;;;;;5093279;28;20152;-72
2023/11/29 01:25:54;;;;;;;9.20;5.57;;;2.90;99.90;;;;;;5079616;28;20043;-72
2023/11/29 01:28:21;;;;;;;9.60;5.35;;;3.00;99.90;;;;;;5086030;28;20380;-72
2023/11/29 01:30:47;;;;;;;9.02;5.45;;;3.00;99.90;;;;;;5083620;28;20044;-71
2023/11/29 01:33:14;;;;;;;10.10;5.05;;;3.00;99.90;;;;;;5087781;28;20036;-71
2023/11/29 01:35:41;;;;;;;9.77;5.43;;;3.00;99.90;;;;;;5084134;28;20485;-70
2023/11/29 01:38:08;;;;;;;7.93;5.18;;;3.00;99.90;;;;;;5080732;28;20050;-71
2023/11/29 01:40:35;;;;;;;9.65;5.25;;;3.00;99.90;;;;;;5078129;28;20055;-71
2023/11/29 01:43:01;;;;;;;9.13;5.28;;;3.10;99.90;;;;;;5086325;28;20041;-71
2023/11/29 01:45:28;;;;;;;11.30;5.43;;;3.10;99.90;;;;;;5080422;28;20350;-71
2023/11/29 01:47:55;;;;;;;10.63;5.20;;;3.20;99.90;;;;;;5092182;28;20036;-71
2023/11/29 01:50:22;;;;;;;9.52;5.10;;;3.20;99.90;;;;;;5090965;28;20481;-71
2023/11/29 01:52:49;;;;;;;8.43;5.15;;;3.20;99.90;;;;;;5079070;28;20098;-69
2023/11/29 01:55:16;;;;;;;9.57;4.88;;;3.20;99.90;;;;;;5088452;28;20067;-69
2023/11/29 01:57:42;;;;;;;7.43;4.78;;;3.20;99.90;;;;;;5091028;28;20040;-69
2023/11/29 02:00:11;;;;;;;6.55;4.72;;;3.20;99.90;;;;;;5091070;28;20048;-69
2023/11/29 02:02:39;;;;;;;8.05;4.82;;;3.30;99.90;;;;;;5092474;28;20457;-69
2023/11/29 02:05:06;;;;;;;8.85;4.43;;;3.30;99.90;;;;;;5092588;28;20449;-69
2023/11/29 02:07:33;;;;;;;7.38;4.47;;;3.40;99.90;;;;;;5090959;28;20040;-69
2023/11/29 02:10:00;;;;;;;9.68;4.90;;;3.40;99.90;;;;;;5092168;28;20069;-69
2023/11/29 02:12:27;;;;;;;8.07;4.50;;;3.40;99.90;;;;;;5092381;28;20040;-69
2023/11/29 02:14:54;;;;;;;9.95;4.45;;;3.40;99.90;;;;;;5094411;28;20039;-69
2023/11/29 02:17:21;;;;;;;6.32;4.15;;;3.40;99.90;;;;;;5077841;28;20043;-69
2023/11/29 02:19:48;;;;;;;7.72;4.38;;;3.40;99.90;;;;;;5094490;28;20044;-70
2023/11/29 02:22:14;;;;;;;8.07;4.40;;;3.40;99.90;;;;;;5094288;28;20047;-69
2023/11/29 02:24:41;;;;;;;6.75;3.97;;;3.40;99.90;;;;;;5095690;28;20115;-69
2023/11/29 02:27:08;;;;;;;7.95;4.25;;;3.50;99.90;;;;;;5095628;28;20046;-69
2023/11/29 02:29:36;;;;;;;7.88;4.07;;;3.50;99.90;;;;;;5094039;28;20097;-69
2023/11/29 02:32:03;;;;;;;7.68;4.18;;;3.50;99.90;;;;;;5095617;28;20097;-69
2023/11/29 02:34:30;;;;;;;8.18;4.03;;;3.60;99.90;;;;;;5095764;28;20098;-69
2023/11/29 02:36:58;;;;;;;6.15;3.72;;;3.60;99.90;;;;;;5094124;28;20051;-69
2023/11/29 02:39:24;;;;;;;8.20;4.15;;;3.70;99.90;;;;;;5093767;28;20052;-69
2023/11/29 02:41:51;;;;;;;7.60;3.78;;;3.70;99.90;;;;;;5095371;28;20464;-69
2023/11/29 02:44:18;;;;;;;7.05;4.18;;;3.70;99.90;;;;;;5095145;28;20036;-69
2023/11/29 02:46:45;;;;;;;9.00;4.00;;;3.80;99.90;;;;;;5093772;28;20040;-69
2023/11/29 02:49:12;;;;;;;10.73;4.00;;;3.80;99.90;;;;;;5093956;28;20060;-69
2023/11/29 02:51:38;;;;;;;7.55;3.95;;;3.80;99.90;;;;;;5094004;28;20048;-69
2023/11/29 02:54:06;;;;;;;7.75;3.63;;;3.90;99.90;;;;;;5090654;28;20119;-69
2023/11/29 02:56:32;;;;;;;5.38;3.83;;;3.90;99.90;;;;;;5077162;28;20366;-69
2023/11/29 02:58:59;;;;;;;6.53;4.05;;;3.90;99.90;;;;;;5094996;28;20040;-69
2023/11/29 03:01:26;;;;;;;5.72;3.92;;;4.00;99.90;;;;;;5093897;28;20048;-68
2023/11/29 03:03:54;;;;;;;10.18;4.28;;;3.90;99.90;;;;;;5093745;28;20452;-69
2023/11/29 03:06:21;;;;;;;8.27;4.55;;;4.00;99.90;;;;;;5076841;28;20040;-68
2023/11/29 03:08:48;;;;;;;7.05;3.70;;;4.00;99.90;;;;;;5093501;28;20044;-69
2023/11/29 03:11:15;;;;;;;6.45;3.88;;;4.00;99.90;;;;;;5093403;28;20043;-69
2023/11/29 03:13:42;;;;;;;8.00;4.22;;;4.00;99.90;;;;;;5093604;28;20101;-69
2023/11/29 03:16:09;;;;;;;7.65;3.97;;;4.00;99.90;;;;;;5094895;28;20045;-69
2023/11/29 03:18:36;;;;;;;6.97;4.32;;;4.10;99.90;;;;;;5094486;28;20048;-69
2023/11/29 03:21:03;;;;;;;8.93;3.90;;;4.10;99.90;;;;;;5094443;28;20040;-69
2023/11/29 03:23:30;;;;;;;6.82;4.25;;;4.10;99.90;;;;;;5074943;28;20040;-69
2023/11/29 03:25:57;;;;;;;9.60;4.65;;;4.10;99.90;;;;;;5092477;28;20558;-69
2023/11/29 03:28:24;;;;;;;8.30;4.07;;;4.20;99.90;;;;;;5094563;28;20036;-68
2023/11/29 03:30:52;;;;;;;6.95;3.75;;;4.20;99.90;;;;;;5093189;28;20036;-69
2023/11/29 03:33:19;;;;;;;7.80;4.03;;;4.20;99.90;;;;;;5094494;28;20404;-68
2023/11/29 03:35:46;;;;;;;7.95;4.10;;;4.20;99.90;;;;;;5094463;28;20044;-68
2023/11/29 03:38:13;;;;;;;9.30;4.07;;;4.20;99.90;;;;;;5093099;28;20139;-68
2023/11/29 03:40:41;;;;;;;7.70;5.10;;;4.20;99.90;;;;;;5076034;28;20066;-68
2023/11/29 03:43:08;;;;;;;8.60;4.90;;;4.20;99.90;;;;;;5092901;28;20040;-68
2023/11/29 03:45:35;;;;;;;7.40;4.47;;;4.20;99.90;;;;;;5094157;28;20036;-69
2023/11/29 03:48:01;;;;;;;7.70;4.35;;;4.20;99.90;;;;;;5092601;28;20466;-69
2023/11/29 03:50:28;;;;;;;7.35;4.55;;;4.20;99.90;;;;;;5092873;28;20089;-68
2023/11/29 03:52:56;;;;;;;9.32;4.15;;;4.20;99.90;;;;;;5074568;28;20044;-68
2023/11/29 03:55:23;;;;;;;7.35;4.80;;;4.20;99.90;;;;;;5080918;28;20044;-68
2023/11/29 03:57:50;;;;;;;9.52;4.95;;;4.20;99.90;;;;;;5073326;28;20115;-68
2023/11/29 04:00:16;;;;;;;6.70;4.57;;;4.20;99.90;;;;;;5087483;28;20131;-68
2023/11/29 04:02:43;;;;;;;8.93;4.47;;;4.30;99.90;;;;;;5073980;28;20127;-68
2023/11/29 04:05:10;;;;;;;8.27;4.50;;;4.30;99.90;;;;;;5087020;28;20463;-68
2023/11/29 04:07:37;;;;;;;8.63;4.57;;;4.20;99.90;;;;;;5093844;28;20044;-68
2023/11/29 04:10:04;;;;;;;7.63;4.70;;;4.30;99.90;;;;;;5092511;28;20395;-68
2023/11/29 04:12:36;;;;;;;5.88;4.35;;;4.30;99.90;;;;;;5092497;28;20421;-69
2023/11/29 04:15:03;;;;;;;8.27;4.70;;;4.30;99.90;;;;;;5080392;28;20489;-69
2023/11/29 04:17:30;;;;;;;7.15;4.65;;;4.30;99.90;;;;;;5072708;28;20078;-68
2023/11/29 04:19:57;;;;;;;9.68;4.88;;;4.30;99.90;;;;;;5072665;28;20511;-69
2023/11/29 04:22:24;;;;;;;7.20;4.43;;;4.30;99.90;;;;;;5072654;28;20103;-69
2023/11/29 04:24:51;;;;;;;7.97;4.78;;;4.20;99.90;;;;;;5080863;28;20071;-69
2023/11/29 04:27:18;;;;;;;10.50;4.63;;;4.20;99.90;;;;;;5072444;28;20051;-69
2023/11/29 04:29:45;;;;;;;9.52;4.85;;;4.20;99.90;;;;;;5072285;28;20036;-69
2023/11/29 04:32:12;;;;;;;9.88;4.43;;;4.20;99.90;;;;;;5072531;28;20068;-69
2023/11/29 04:34:40;;;;;;;10.30;4.90;;;4.20;99.90;;;;;;5056071;28;20086;-69
2023/11/29 04:37:14;;;;;;;9.32;5.40;;;4.10;99.90;;;;;;5085871;28;20110;-69
2023/11/29 04:39:41;;;;;;;6.93;4.57;;;4.20;99.90;;;;;;5091637;28;20139;-69
2023/11/29 04:42:09;;;;;;;6.25;4.55;;;4.20;99.90;;;;;;5091845;28;20480;-69
2023/11/29 04:44:35;;;;;;;8.43;5.13;;;4.10;99.90;;;;;;5092178;28;20044;-69
2023/11/29 04:47:03;;;;;;;12.10;4.78;;;4.10;99.90;;;;;;5091834;28;20546;-69
2023/11/29 04:49:30;;;;;;;8.90;5.43;;;4.10;99.90;;;;;;5090250;28;20036;-69
2023/11/29 04:51:57;;;;;;;10.30;5.30;;;4.10;99.90;;;;;;5093264;28;20055;-69
2023/11/29 04:54:23;;;;;;;8.13;4.97;;;4.00;99.90;;;;;;5092712;28;20063;-68
2023/11/29 04:56:50;;;;;;;13.25;5.28;;;4.00;99.90;;;;;;5093053;28;20068;-69
2023/11/29 04:59:17;;;;;;;11.55;5.50;;;4.10;99.90;;;;;;5091618;28;20097;-69
2023/11/29 05:01:45;;;;;;;10.32;5.47;;;4.10;99.90;;;;;;5092845;28;20085;-69
2023/11/29 05:04:12;;;;;;;7.22;5.07;;;4.10;99.90;;;;;;5091831;28;20070;-69
2023/11/29 05:06:38;;;;;;;7.47;5.05;;;4.10;99.90;;;;;;5092895;28;20047;-69
2023/11/29 05:09:09;;;;;;;11.98;5.30;;;4.10;99.90;;;;;;5092732;28;20049;-69
2023/11/29 05:11:36;;;;;;;8.45;4.78;;;4.10;99.90;;;;;;5092809;28;20039;-69
2023/11/29 05:14:03;;;;;;;7.82;4.90;;;4.10;99.90;;;;;;5091696;28;20048;-69
2023/11/29 05:16:30;;;;;;;7.03;4.88;;;4.10;99.90;;;;;;5092944;28;20043;-69
2023/11/29 05:18:56;;;;;;;10.38;5.30;;;4.00;99.90;;;;;;5092868;28;20110;-69
2023/11/29 05:21:25;;;;;;;8.35;4.97;;;4.00;99.90;;;;;;5092707;28;20043;-69
2023/11/29 05:23:52;;;;;;;8.02;4.90;;;4.10;99.90;;;;;;5092734;28;20064;-69
2023/11/29 05:26:19;;;;;;;6.72;5.25;;;4.00;99.90;;;;;;5092724;28;20045;-69
2023/11/29 05:28:46;;;;;;;10.45;5.57;;;4.00;99.90;;;;;;5092870;28;20518;-69
2023/11/29 05:31:13;;;;;;;6.53;5.22;;;4.00;99.90;;;;;;5091552;28;20040;-69
2023/11/29 05:33:40;;;;;;;7.85;5.18;;;4.00;99.90;;;;;;5092934;28;20040;-69
2023/11/29 05:36:07;;;;;;;9.32;5.90;;;4.00;99.90;;;;;;5091494;28;20048;-69
2023/11/29 05:38:33;;;;;;;9.80;6.03;;;3.90;99.90;;;;;;5092508;28;20047;-68
2023/11/29 05:41:00;;;;;;;8.95;5.85;;;3.90;99.90;;;;;;5092366;28;20094;-71
2023/11/29 05:43:27;;;;;;;8.57;5.95;;;3.80;99.90;;;;;;5092654;28;20038;-72
2023/11/29 05:45:54;;;;;;;8.57;6.38;;;3.70;99.90;;;;;;5071900;28;20452;-72
2023/11/29 05:48:21;;;;;;;10.98;5.93;;;3.70;99.90;;;;;;5074343;28;20398;-71
2023/11/29 05:50:48;;;;;;;8.95;5.97;;;3.60;99.90;;;;;;5076527;28;20543;-71
2023/11/29 05:53:17;;;;;;;11.27;6.35;;;3.50;99.90;;;;;;5076902;28;20119;-71
2023/11/29 05:55:44;;;;;;;10.00;6.15;;;3.50;99.90;;;;;;5086064;28;20383;-72
2023/11/29 05:58:11;;;;;;;8.65;6.15;;;3.40;99.90;;;;;;5096318;28;20042;-72
2023/11/29 06:00:38;;;;;;;10.32;6.50;;;3.40;99.90;;;;;;5082236;28;20067;-71
2023/11/29 06:03:06;;;;;;;9.75;6.10;;;3.40;99.90;;;;;;5076579;28;20041;-71
2023/11/29 06:05:55;;;;;;;10.63;6.40;;;3.30;99.90;;;;;;5085471;28;20051;-71
2023/11/29 06:08:21;;;;;;;13.57;6.68;;;3.30;99.90;;;;;;5076153;28;20048;-71
2023/11/29 06:10:48;;;;;;;9.98;6.57;;;3.40;99.90;;;;;;5058226;28;20056;-71
2023/11/29 06:13:17;;;;;;;10.05;6.20;;;3.40;99.90;;;;;;5076122;28;20052;-71
2023/11/29 06:15:44;;;;;;;9.32;6.22;;;3.50;99.90;;;;;;5075918;28;20051;-71
2023/11/29 06:18:11;;;;;;;9.95;6.53;;;3.50;99.90;;;;;;5080838;28;20050;-72
2023/11/29 06:20:40;;;;;;;9.85;6.57;;;3.50;99.90;;;;;;5075999;28;20048;-71
2023/11/29 06:23:07;;;;;;;10.95;6.35;;;3.50;99.90;;;;;;5058459;28;20068;-71
2023/11/29 06:25:34;;;;;;;9.07;6.32;;;3.50;99.90;;;;;;5082496;28;20043;-71
2023/11/29 06:28:01;;;;;;;13.13;7.20;;;3.50;99.90;;;;;;5095684;28;20051;-71
2023/11/29 06:30:29;;;;;;;9.40;6.90;;;3.50;99.90;;;;;;5095575;28;20040;-71
2023/11/29 06:32:56;;;;;;;10.15;6.90;;;3.40;99.90;;;;;;5095684;28;20048;-71
2023/11/29 06:35:23;;;;;;;10.80;6.90;;;3.40;99.90;;;;;;5096259;28;20128;-72
2023/11/29 06:37:50;;;;;;;11.52;7.15;;;3.30;99.90;;;;;;5084862;28;20072;-69
2023/11/29 06:40:28;;;;;;;9.80;6.60;;;3.20;99.90;;;;;;5076080;28;20054;-70
2023/11/29 06:42:55;;;;;;;11.05;7.05;;;3.20;99.90;;;;;;5078475;28;20117;-68
2023/11/29 06:45:21;;;;;;;13.90;7.70;;;3.10;99.90;;;;;;5076140;28;20071;-68
2023/11/29 06:47:49;;;;;;;10.50;7.65;;;3.10;99.90;;;;;;5075694;28;20484;-68
2023/11/29 06:50:15;;;;;;;12.63;8.38;;;3.00;99.90;;;;;;5076040;28;20370;-68
2023/11/29 06:52:43;;;;;;;11.95;7.85;;;3.00;99.90;;;;;;5075722;28;20037;-69
2023/11/29 06:55:12;;;;;;;13.02;8.52;;;2.90;99.90;;;;;;5075352;28;20139;-69
2023/11/29 06:57:39;;;;;;;10.85;7.93;;;2.90;99.90;;;;;;5093197;28;20052;-69
2023/11/29 07:00:09;;;;;;;11.00;7.85;;;2.80;99.90;;;;;;5094273;28;20473;-69
2023/11/29 07:02:36;;;;;;;11.80;8.57;;;2.70;99.90;;;;;;5094848;28;20536;-69
2023/11/29 07:05:04;;;;;;;15.48;8.45;;;2.70;99.90;;;;;;5094805;28;20561;-69
2023/11/29 07:07:31;;;;;;;13.00;8.68;;;2.60;99.90;;;;;;5094895;28;20463;-69
2023/11/29 07:09:58;;;;;;;16.05;8.57;;;2.60;99.90;;;;;;5094560;28;20044;-69
2023/11/29 07:12:25;;;;;;;13.82;8.32;;;2.60;99.90;;;;;;5094655;28;20042;-69
2023/11/29 07:14:53;;;;;;;10.70;8.75;;;2.50;99.90;;;;;;5094933;28;20039;-69
2023/11/29 07:17:20;;;;;;;15.48;9.10;;;2.40;99.90;;;;;;5094743;28;20119;-68
2023/11/29 07:19:47;;;;;;;12.70;9.55;;;2.40;99.90;;;;;;5093420;28;20040;-68
2023/11/29 07:22:14;;;;;;;14.10;9.43;;;2.40;99.90;;;;;;5094686;28;20032;-68
2023/11/29 07:24:41;;;;;;;16.38;9.68;;;2.30;99.90;;;;;;5094168;28;20037;-69
2023/11/29 07:27:08;;;;;;;12.25;8.90;;;2.30;99.90;;;;;;5093029;28;20040;-68
2023/11/29 07:29:35;;;;;;;12.73;8.88;;;2.30;99.90;;;;;;5094246;28;20036;-69
2023/11/29 07:32:02;;;;;;;16.60;10.27;;;2.30;99.90;;;;;;5094247;28;20378;-69
2023/11/29 07:34:29;;;;;;;16.60;9.35;;;2.20;99.90;;;;;;5095161;28;20362;-69
2023/11/29 07:36:56;;;;;;;14.95;8.68;;;2.20;99.90;;;;;;5093828;28;20508;-69
2023/11/29 07:39:22;;;;;;;13.65;9.00;;;2.20;99.90;;;;;;5094387;28;20054;-69
2023/11/29 07:41:49;;;;;;;12.45;8.80;;;2.20;99.90;;;;;;5094136;28;20388;-69
2023/11/29 07:44:21;;;;;;;12.73;8.27;;;2.10;99.90;;;;;;5093322;28;20500;-69
2023/11/29 07:46:50;;;;;;;13.55;8.95;;;2.10;99.90;;;;;;5094959;28;20093;-69
2023/11/29 07:49:17;;;;;;;13.68;8.50;;;2.10;99.90;;;;;;5094979;28;20028;-69
2023/11/29 07:51:44;;;;;;;12.25;8.35;;;2.00;99.90;;;;;;5094584;28;20036;-69
2023/11/29 07:54:11;;;;;;;14.60;9.00;;;2.00;99.90;;;;;;5094777;28;20047;-70
2023/11/29 07:56:39;;;;;;;13.63;8.85;;;2.00;99.90;;;;;;5094921;28;20118;-71
2023/11/29 07:59:06;;;;;;;13.05;8.77;;;1.90;99.90;;;;;;5094242;28;20040;-71
2023/11/29 08:01:34;;;;;;;12.85;8.15;;;1.90;99.90;;;;;;5094936;28;20072;-71
2023/11/29 08:04:01;;;;;;;20.27;10.23;;;1.80;99.90;;;;;;5094856;28;20090;-71
2023/11/29 08:06:28;;;;;;;15.27;9.73;;;1.90;99.90;;;;;;5093664;28;20438;-71
2023/11/29 08:08:55;;;;;;;13.50;9.32;;;1.90;99.90;;;;;;5094599;28;20058;-70
2023/11/29 08:11:22;;;;;;;14.85;9.95;;;1.90;99.90;;;;;;5078333;28;20090;-70
2023/11/29 08:13:50;;;;;;;15.77;10.07;;;1.90;99.90;;;;;;5073675;28;20045;-70
2023/11/29 08:16:17;;;;;;;14.45;10.15;;;1.90;99.90;;;;;;5092232;28;20051;-71
2023/11/29 08:18:45;;;;;;;15.93;10.32;;;2.00;99.90;;;;;;5093893;28;20040;-70
2023/11/29 08:21:12;;;;;;;13.45;10.00;;;2.00;99.90;;;;;;5076375;28;20072;-71
2023/11/29 08:23:38;;;;;;;15.93;10.65;;;2.00;99.90;;;;;;5073405;28;20036;-71
2023/11/29 08:26:05;;;;;;;15.90;10.60;;;2.00;99.90;;;;;;5073548;28;20036;-71
2023/11/29 08:28:32;;;;;;;18.23;10.68;;;2.00;99.90;;;;;;5073327;28;20448;-71
2023/11/29 08:30:59;;;;;;;16.20;11.05;;;2.10;99.90;;;;;;5073335;28;20086;-71
2023/11/29 08:33:26;;;;;;;16.15;11.20;;;2.20;99.90;;;;;;5073277;28;20457;-71
2023/11/29 08:35:53;;;;;;;15.38;10.90;;;2.10;99.90;;;;;;5072291;28;20049;-71
2023/11/29 08:38:20;;;;;;;20.73;11.00;;;2.20;99.90;;;;;;5071976;28;20079;-71
2023/11/29 08:40:47;;;;;;;19.15;11.43;;;2.20;99.90;;;;;;5075917;28;20052;-71
2023/11/29 08:43:14;;;;;;;17.65;11.13;;;2.30;99.90;;;;;;5073542;28;20145;-71
2023/11/29 08:45:49;;;;;;;14.32;9.88;;;2.30;99.90;;;;;;5086212;28;20044;-71
2023/11/29 08:48:16;;;;;;;13.48;10.07;;;2.30;99.90;;;;;;5091789;28;20563;-71
2023/11/29 08:50:43;;;;;;;13.55;10.38;;;2.40;99.90;;;;;;5081662;28;20064;-71
2023/11/29 08:53:10;;;;;;;16.33;10.52;;;2.50;99.90;;;;;;5073328;28;20470;-71
2023/11/29 08:55:42;;;;;;;15.77;10.07;;;2.60;99.90;;;;;;5073541;28;20044;-71
2023/11/29 08:58:09;;;;;;;16.88;10.68;;;2.60;99.90;;;;;;5073032;28;20481;-71
2023/11/29 09:00:36;;;;;;;15.05;10.35;;;2.60;99.90;;;;;;5079702;28;20071;-71
2023/11/29 09:03:03;;;;;;;14.57;10.00;;;2.70;99.90;;;;;;5090640;28;20481;-70
2023/11/29 09:05:30;;;;;;;18.77;10.52;;;2.70;99.90;;;;;;5082424;28;20047;-70
2023/11/29 09:07:57;;;;;;;15.07;10.38;;;2.80;99.90;;;;;;5093502;28;20035;-71
2023/11/29 09:10:24;;;;;;;16.15;10.93;;;2.80;99.90;;;;;;5093360;28;20036;-71
2023/11/29 09:12:51;;;;;;;14.48;10.65;;;2.90;99.90;;;;;;5093868;28;20203;-71
2023/11/29 09:15:18;;;;;;;15.88;10.57;;;2.90;99.90;;;;;;5092980;28;20036;-71
2023/11/29 09:17:46;;;;;;;13.85;10.38;;;3.00;99.90;;;;;;5093044;28;20044;-71
2023/11/29 09:20:13;;;;;;;14.82;10.77;;;3.00;99.90;;;;;;5089673;28;20043;-71
2023/11/29 09:22:40;;;;;;;17.23;10.75;;;3.10;99.90;;;;;;5091705;28;20044;-72
2023/11/29 09:32:10;;;;;;;16.35;10.95;;;3.20;99.90;;;;;;5096394;28;20027;-71
2023/11/29 09:34:37;;;;;;;14.85;10.57;;;3.30;99.90;;;;;;5096565;28;20063;-67
2023/11/29 09:37:04;;;;;;;15.88;10.93;;;3.30;99.90;;;;;;5095701;28;20044;-67
2023/11/29 09:39:31;;;;;;;14.95;10.60;;;3.30;99.90;;;;;;5095015;28;20044;-67
2023/11/29 09:42:02;;;;;;;15.35;10.70;;;3.30;99.90;;;;;;5097732;28;20042;-67
2023/11/29 09:44:32;;;;;;;16.67;12.00;;;3.30;99.90;;;;;;5096353;28;20044;-67
2023/11/29 09:46:59;;;;;;;16.75;11.48;;;3.30;99.90;;;;;;5097542;28;20044;-67
2023/11/29 09:49:25;;;;;;;20.02;11.85;;;3.40;99.90;;;;;;5096987;28;20111;-67
2023/11/29 09:51:52;;;;;;;17.58;11.77;;;3.40;99.90;;;;;;5097322;28;20047;-67
2023/11/29 09:54:19;;;;;;;15.45;11.10;;;3.40;99.90;;;;;;5095044;28;20484;-67
2023/11/29 09:56:46;;;;;;;17.05;11.73;;;3.40;99.90;;;;;;5095594;28;20044;-67
2023/11/29 09:59:13;;;;;;;16.58;11.52;;;3.40;99.90;;;;;;5095682;28;20067;-67
2023/11/29 10:01:40;;;;;;;17.80;11.50;;;3.50;99.90;;;;;;5096058;28;20508;-67
2023/11/29 10:04:08;;;;;;;16.60;12.25;;;3.50;99.90;;;;;;5095856;28;20032;-66
2023/11/29 10:06:35;;;;;;;17.30;11.15;;;3.50;99.90;;;;;;5095873;28;20067;-66
2023/11/29 10:09:04;;;;;;;15.98;10.48;;;3.50;99.90;;;;;;5096153;28;20054;-66
2023/11/29 10:11:31;;;;;;;18.23;11.77;;;3.50;99.90;;;;;;5097069;28;20064;-66
2023/11/29 10:13:58;;;;;;;14.27;10.15;;;3.50;99.90;;;;;;5095411;28;20048;-67
2023/11/29 10:16:25;;;;;;;16.73;11.38;;;3.50;99.90;;;;;;5096667;28;20044;-67
2023/11/29 10:18:52;;;;;;;16.83;11.55;;;3.60;99.90;;;;;;5095420;28;20139;-66
2023/11/29 10:21:19;;;;;;;16.55;10.93;;;3.60;99.90;;;;;;5096796;28;20047;-67
2023/11/29 10:23:47;;;;;;;17.08;12.13;;;3.70;99.90;;;;;;5096851;28;20040;-67
2023/11/29 10:26:14;;;;;;;15.90;10.82;;;3.70;99.90;;;;;;5095119;28;20036;-66
2023/11/29 10:28:41;;;;;;;22.10;11.73;;;3.70;99.90;;;;;;5096501;28;20042;-67
2023/11/29 10:31:08;;;;;;;18.40;12.35;;;3.80;99.90;;;;;;5096782;28;20036;-66
2023/11/29 10:33:35;;;;;;;21.55;12.07;;;3.90;99.90;;;;;;5096672;28;20119;-67
2023/11/29 10:36:02;;;;;;;18.80;11.82;;;3.90;99.90;;;;;;5095217;28;20048;-66
2023/11/29 10:38:29;;;;;;;17.67;12.32;;;4.00;99.90;;;;;;5094887;28;20129;-67
2023/11/29 10:40:56;;;;;;;18.58;11.52;;;4.00;99.90;;;;;;5095897;28;20056;-67
2023/11/29 10:43:23;;;;;;;18.85;11.82;;;4.10;99.90;;;;;;5096401;28;20105;-66
2023/11/29 10:45:49;;;;;;;20.40;12.70;;;4.10;99.90;;;;;;5094774;28;20426;-66
2023/11/29 10:48:18;;;;;;;21.83;11.90;;;4.10;99.90;;;;;;5095802;28;20040;-66
2023/11/29 10:50:45;;;;;;;18.65;11.73;;;4.10;99.90;;;;;;5096122;28;20466;-66
2023/11/29 10:53:12;;;;;;;21.42;12.68;;;4.20;99.90;;;;;;5095576;28;20064;-66
2023/11/29 10:55:39;;;;;;;17.10;12.43;;;4.20;99.90;;;;;;5096131;28;20405;-66
2023/11/29 10:58:06;;;;;;;18.13;12.02;;;4.20;99.90;;;;;;5094322;28;20036;-66
2023/11/29 11:00:33;;;;;;;19.00;11.60;;;4.20;99.90;;;;;;5095914;28;20070;-67
2023/11/29 11:02:59;;;;;;;23.40;12.18;;;4.20;99.90;;;;;;5096017;28;20064;-66
2023/11/29 11:05:26;;;;;;;18.00;12.27;;;4.30;99.90;;;;;;5095987;28;20036;-66
2023/11/29 11:07:54;;;;;;;23.83;12.35;;;4.30;99.90;;;;;;5095499;28;20036;-66
2023/11/29 11:10:21;;;;;;;19.38;11.15;;;4.40;99.90;;;;;;5095435;28;20033;-67
2023/11/29 11:12:48;;;;;;;17.02;12.32;;;4.40;99.90;;;;;;5095462;28;20044;-66
2023/11/29 11:15:15;;;;;;;16.15;12.27;;;4.50;99.90;;;;;;5095569;28;20048;-66
2023/11/29 11:17:42;;;;;;;18.08;11.18;;;4.60;99.90;;;;;;5095515;28;20044;-66
2023/11/29 11:20:09;;;;;;;16.90;11.32;;;4.60;99.90;;;;;;5093893;28;20093;-66
2023/11/29 11:22:36;;;;;;;20.08;11.82;;;4.70;99.90;;;;;;5095535;28;20097;-66
2023/11/29 11:25:06;;;;;;;15.30;11.02;;;4.70;99.90;;;;;;5095524;28;20040;-66
2023/11/29 11:27:34;;;;;;;18.38;11.30;;;4.70;99.90;;;;;;5095157;28;20118;-66
2023/11/29 11:30:01;;;;;;;15.43;10.82;;;4.70;99.90;;;;;;5094261;28;20472;-66
2023/11/29 11:32:27;;;;;;;15.05;9.63;;;4.80;99.90;;;;;;5094404;28;20032;-66
2023/11/29 11:34:54;;;;;;;15.32;9.50;;;4.80;99.90;;;;;;5094948;28;20047;-66
2023/11/29 11:37:22;;;;;;;15.77;8.85;;;4.80;99.90;;;;;;5095101;28;20451;-66
2023/11/29 11:39:48;;;;;;;15.40;9.27;;;4.80;99.90;;;;;;5094636;28;20056;-66
2023/11/29 11:42:15;;;;;;;21.60;9.00;;;4.80;99.90;;;;;;5093891;28;20481;-66
2023/11/29 11:44:42;;;;;;;13.65;8.57;;;4.90;99.90;;;;;;5095198;28;20469;-66
2023/11/29 11:47:09;;;;;;;19.98;8.13;;;4.90;99.90;;;;;;5093289;28;20040;-66
2023/11/29 11:49:36;;;;;;;11.68;7.80;;;4.90;99.90;;;;;;5094504;28;20055;-66
2023/11/29 11:52:03;;;;;;;13.60;8.02;;;4.90;99.90;;;;;;5095161;28;20046;-66
2023/11/29 11:54:30;;;;;;;11.27;7.82;;;5.00;99.90;;;;;;5094828;28;20050;-66
2023/11/29 11:56:57;;;;;;;17.33;9.00;;;5.00;99.90;;;;;;5094455;28;20050;-66
2023/11/29 11:59:24;;;;;;;15.18;8.80;;;5.10;99.90;;;;;;5094464;28;20036;-66
2023/11/29 12:01:51;;;;;;;13.27;8.32;;;5.10;99.90;;;;;;5094500;28;20044;-66
2023/11/29 12:04:17;;;;;;;15.77;9.35;;;5.20;99.90;;;;;;5094255;28;20040;-66
2023/11/29 12:06:44;;;;;;;13.55;9.57;;;5.10;99.90;;;;;;5094725;28;20097;-66
2023/11/29 12:09:12;;;;;;;15.95;9.50;;;5.20;99.90;;;;;;5094565;28;20032;-66
2023/11/29 12:11:38;;;;;;;14.82;9.65;;;5.20;99.90;;;;;;5094406;28;20042;-66
2023/11/29 12:14:05;;;;;;;14.10;9.43;;;5.30;99.90;;;;;;5094717;28;20449;-67
2023/11/29 12:16:32;;;;;;;15.35;9.77;;;5.30;99.90;;;;;;5094741;28;20113;-66
2023/11/29 12:19:01;;;;;;;15.40;9.63;;;5.40;99.90;;;;;;5092804;28;20043;-66
2023/11/29 12:21:29;;;;;;;15.80;9.13;;;5.40;99.90;;;;;;5093065;28;20036;-66
2023/11/29 12:23:56;;;;;;;16.25;9.55;;;5.50;99.90;;;;;;5094466;28;20074;-66
2023/11/29 12:26:23;;;;;;;14.02;8.23;;;5.50;99.90;;;;;;5094320;28;20127;-66
2023/11/29 12:28:50;;;;;;;14.07;8.93;;;5.50;99.90;;;;;;5094440;28;20038;-66
2023/11/29 12:31:16;;;;;;;18.13;10.00;;;5.50;99.90;;;;;;5094364;28;20036;-72
2023/11/29 12:33:43;;;;;;;21.75;9.82;;;5.50;99.90;;;;;;5092687;28;20594;-65
2023/11/29 12:36:10;;;;;;;12.98;8.68;;;5.60;99.90;;;;;;5094412;28;20381;-65
2023/11/29 12:38:37;;;;;;;14.85;8.68;;;5.60;99.90;;;;;;5094030;28;20036;-65
2023/11/29 12:41:04;;;;;;;15.43;8.98;;;5.70;99.90;;;;;;5093703;28;20063;-65
2023/11/29 12:43:31;;;;;;;16.05;10.18;;;5.70;99.90;;;;;;5094352;28;20093;-66
2023/11/29 12:45:58;;;;;;;13.75;9.30;;;5.70;99.90;;;;;;5094071;28;20441;-65
2023/11/29 12:48:25;;;;;;;16.27;8.88;;;5.80;99.90;;;;;;5094230;28;20086;-67
2023/11/29 12:50:53;;;;;;;20.20;8.90;;;5.80;99.90;;;;;;5094314;28;20393;-65
2023/11/29 12:53:19;;;;;;;19.67;10.88;;;5.80;99.90;;;;;;5093760;28;20051;-65
2023/11/29 12:55:46;;;;;;;15.65;9.20;;;5.90;99.90;;;;;;5094103;28;20048;-67